Time;durP1;ratioP1;P1;durP2;ratioP2;P2;SDS_P1;SDS_P2;PMS_P1;PMS_P2;Temp;Humidity;BMP_temperature;BMP_pressure;BME280_temperature;BME280_humidity;BME280_pressure;Samples;Min_cycle;Max_cycle;Signal;HPM_P1;HPM_P2
2021/05/11 00:01:18;;;;;;;9.03;2.65;;;;;;;11.14;70.42;99543.16;1747247;81;21082;-68
2021/05/11 00:03:51;;;;;;;5.12;2.47;;;;;;;11.11;70.49;99546.68;1770031;80;21364;-68
2021/05/11 00:06:31;;;;;;;4.00;2.33;;;;;;;11.09;70.27;99541.84;1741649;81;21093;-67
2021/05/11 00:09:05;;;;;;;4.83;2.58;;;;;;;11.08;70.38;99544.05;1759137;81;20943;-68
2021/05/11 00:11:36;;;;;;;4.15;2.20;;;;;;;11.08;70.23;99541.84;1732568;81;26609;-67
2021/05/11 00:14:09;;;;;;;3.95;1.98;;;;;;;11.05;70.09;99542.73;1725678;81;21077;-68
2021/05/11 00:16:41;;;;;;;5.08;2.47;;;;;;;11.02;70.38;99551.53;1762654;80;21208;-67
2021/05/11 00:19:17;;;;;;;5.75;2.30;;;;;;;10.99;70.58;99546.26;1777135;80;21026;-67
2021/05/11 00:21:54;;;;;;;4.75;2.70;;;;;;;10.97;70.71;99543.19;1781330;80;20915;-67
2021/05/11 00:24:30;;;;;;;3.20;2.80;;;;;;;10.95;70.57;99543.63;1781268;80;21082;-66
2021/05/11 00:27:02;;;;;;;3.47;2.75;;;;;;;10.92;70.66;99536.59;1778769;80;21019;-67
2021/05/11 00:29:33;;;;;;;4.45;3.42;;;;;;;10.90;71.28;99532.20;1744742;81;21369;-67
2021/05/11 00:32:07;;;;;;;4.53;3.67;;;;;;;10.85;73.11;99531.30;1749612;81;20938;-65
2021/05/11 00:34:44;;;;;;;4.00;3.30;;;;;;;10.82;75.14;99530.86;1739831;81;21183;-67
2021/05/11 00:37:16;;;;;;;5.12;3.02;;;;;;;10.80;76.49;99533.06;1723324;82;20938;-65
2021/05/11 00:39:47;;;;;;;5.58;3.22;;;;;;;10.73;78.12;99530.87;1723008;82;20987;-67
2021/05/11 00:42:18;;;;;;;7.42;3.40;;;;;;;10.70;79.13;99526.91;1802146;79;21368;-67
2021/05/11 00:44:50;;;;;;;6.20;3.92;;;;;;;10.67;79.83;99522.52;1731641;82;20951;-66
2021/05/11 00:47:21;;;;;;;7.45;3.70;;;;;;;10.65;81.37;99527.36;1731245;81;21184;-65
2021/05/11 00:49:53;;;;;;;4.40;3.40;;;;;;;10.60;84.40;99522.08;1733407;82;20990;-66
2021/05/11 00:52:27;;;;;;;5.00;3.47;;;;;;;10.59;88.31;99523.40;1733637;82;20991;-66
2021/05/11 00:55:06;;;;;;;4.97;4.00;;;;;;;10.61;90.72;99523.84;1733655;82;21444;-68
2021/05/11 00:57:41;;;;;;;4.20;2.92;;;;;;;10.64;93.87;99524.28;1739416;81;20946;-67
2021/05/11 01:00:14;;;;;;;4.58;3.02;;;;;;;10.62;95.39;99513.73;1756456;81;21116;-68
2021/05/11 01:02:51;;;;;;;4.62;3.22;;;;;;;10.60;96.61;99509.33;1726619;83;20958;-66
2021/05/11 01:05:25;;;;;;;4.42;3.30;;;;;;;10.56;98.55;99509.77;1740393;81;20951;-67
2021/05/11 01:07:56;;;;;;;5.35;3.42;;;;;;;10.51;100.00;99506.26;1788830;79;21233;-66
2021/05/11 01:10:27;;;;;;;7.35;3.25;;;;;;;10.46;100.00;99504.50;1787368;79;21665;-67
2021/05/11 01:13:01;;;;;;;4.97;3.10;;;;;;;10.44;100.00;99510.22;1792741;79;21006;-68
2021/05/11 01:15:33;;;;;;;3.80;2.80;;;;;;;10.42;100.00;99516.81;1724796;82;21086;-66
2021/05/11 01:18:12;;;;;;;10.28;2.92;;;;;;;10.42;100.00;99510.22;1773497;79;21569;-66
2021/05/11 01:20:45;;;;;;;5.60;3.10;;;;;;;10.42;100.00;99512.86;1737199;81;21352;-67
2021/05/11 01:25:56;;;;;;;8.00;3.62;;;;;;;10.45;100.00;99510.66;1739351;81;21158;-67
2021/05/11 01:48:11;;;;;;;5.80;3.00;;;;;;;10.25;100.00;99502.70;1721358;81;21213;-65
2021/05/11 01:56:21;;;;;;;4.47;2.80;;;;;;;10.19;100.00;99511.89;1752309;80;21250;-66
2021/05/11 01:58:58;;;;;;;5.53;2.62;;;;;;;10.16;100.00;99514.09;1765344;80;21066;-67
2021/05/11 02:22:38;;;;;;;8.25;3.00;;;;;;;10.03;100.00;99513.19;1768903;80;21131;-66
2021/05/11 02:24:11;;;;;;;7.12;2.55;;;;;;;10.00;100.00;99507.03;1708281;83;21168;-63
2021/05/11 02:26:46;;;;;;;5.60;2.50;;;;;;;10.03;100.00;99512.31;1756733;81;21585;-64
2021/05/11 02:29:21;;;;;;;3.33;2.58;;;;;;;10.07;100.00;99515.39;1732309;81;21422;-64
2021/05/11 02:31:58;;;;;;;2.85;2.52;;;;;;;10.09;100.00;99515.84;1739122;81;21112;-64
2021/05/11 02:34:30;;;;;;;4.22;2.90;;;;;;;10.11;100.00;99519.80;1739315;81;21082;-64
2021/05/11 02:37:01;;;;;;;9.30;3.37;;;;;;;10.13;100.00;99519.80;1739397;80;21472;-64
2021/05/11 02:39:34;;;;;;;6.95;3.22;;;;;;;10.13;100.00;99524.62;1737301;81;20989;-62
2021/05/11 02:42:11;;;;;;;5.10;2.55;;;;;;;10.17;100.00;99521.56;1762478;80;21387;-63
2021/05/11 02:44:47;;;;;;;3.62;2.75;;;;;;;10.19;100.00;99524.64;1769560;80;21515;-64
2021/05/11 02:47:18;;;;;;;3.00;2.70;;;;;;;10.24;100.00;99523.36;1745303;81;21082;-62
2021/05/11 02:49:50;;;;;;;6.37;3.30;;;;;;;10.26;100.00;99518.53;1719388;81;21203;-68
2021/05/11 02:52:30;;;;;;;3.33;2.95;;;;;;;10.28;100.00;99514.57;1739645;81;21197;-69
2021/05/11 02:54:54;;;;;;;5.50;3.50;;;;;;;10.27;100.00;99509.73;1737304;82;21394;-67
2021/05/11 02:57:27;;;;;;;7.58;3.75;;;;;;;10.31;100.00;99511.50;1751104;79;21105;-66
2021/05/11 02:59:57;;;;;;;17.52;5.40;;;;;;;10.32;100.00;99509.74;1758202;80;20936;-67
2021/05/11 03:02:28;;;;;;;4.62;3.60;;;;;;;10.35;100.00;99517.22;1709838;83;20930;-68
2021/05/11 03:05:01;;;;;;;12.47;4.28;;;;;;;10.36;100.00;99516.34;1792529;79;21078;-70
2021/05/11 03:07:33;;;;;;;13.25;3.58;;;;;;;10.37;100.00;99519.85;1752434;80;22650;-67
2021/05/11 03:10:14;;;;;;;11.78;3.22;;;;;;;10.33;100.00;99518.09;1773860;80;21018;-67
2021/05/11 03:12:45;;;;;;;10.23;3.65;;;;;;;10.29;100.00;99514.58;1745945;81;26406;-67
2021/05/11 03:15:15;;;;;;;13.93;3.30;;;;;;;10.31;100.00;99517.21;1726365;81;21239;-66
2021/05/11 03:17:45;;;;;;;11.15;3.55;;;;;;;10.29;100.00;99511.06;1759837;81;21570;-66
2021/05/11 03:20:17;;;;;;;4.55;3.17;;;;;;;10.27;100.00;99515.02;1753268;81;21140;-67
2021/05/11 03:22:51;;;;;;;8.20;3.40;;;;;;;10.23;100.00;99511.05;1710777;82;21097;-68
2021/05/11 03:25:23;;;;;;;5.78;3.47;;;;;;;10.20;100.00;99513.66;1739984;81;20939;-64
2021/05/11 03:27:56;;;;;;;9.83;4.42;;;;;;;10.16;100.00;99511.45;1722334;82;20972;-69
2021/05/11 03:30:30;;;;;;;16.30;3.50;;;;;;;10.11;100.00;99518.48;1738874;81;21471;-72
2021/05/11 03:33:00;;;;;;;7.37;3.45;;;;;;;10.04;100.00;99512.75;1724814;82;21376;-72
2021/05/11 03:35:30;;;;;;;18.35;4.35;;;;;;;10.02;100.00;99507.48;1725613;81;21156;-69
2021/05/11 03:38:00;;;;;;;11.45;3.95;;;;;;;10.04;100.00;99512.75;1768763;80;20936;-70
2021/05/11 03:40:31;;;;;;;12.88;4.30;;;;;;;10.06;100.00;99509.69;1770377;80;21023;-69
2021/05/11 03:43:06;;;;;;;13.85;4.00;;;;;;;10.06;100.00;99508.37;1770402;80;20991;-68
2021/05/11 03:45:38;;;;;;;11.00;4.25;;;;;;;10.08;100.00;99507.92;1770526;80;21205;-67
2021/05/11 03:48:17;;;;;;;10.38;4.85;;;;;;;10.18;100.00;99505.74;1835122;78;22798;-69
2021/05/11 03:50:53;;;;;;;13.47;4.50;;;;;;;10.22;100.00;99512.81;1819158;78;27871;-70
2021/05/11 03:53:40;;;;;;;7.05;3.67;;;;;;;10.25;100.00;99509.30;1808411;79;20956;-70
2021/05/11 03:56:16;;;;;;;25.90;4.35;;;;;;;10.42;100.00;99506.27;1836498;78;22662;-69
2021/05/11 03:58:52;;;;;;;12.93;4.30;;;;;;;10.52;100.00;99506.70;1820857;76;27797;-69
2021/05/11 04:01:28;;;;;;;7.87;4.00;;;;;;;10.64;100.00;99509.33;1788166;78;27811;-70
2021/05/11 04:04:05;;;;;;;16.48;4.40;;;;;;;10.84;100.00;99509.74;1821616;77;28326;-69
2021/05/11 04:06:52;;;;;;;36.50;6.45;;;;;;;10.97;100.00;99511.07;1809660;78;20923;-69
2021/05/11 04:17:45;;;;;;;3.12;2.77;;;;;;;11.50;100.00;99515.33;1837366;77;23247;-68
2021/05/11 04:20:41;;;;;;;4.75;2.62;;;;;;;11.60;100.00;99512.20;1871991;75;22677;-68
2021/05/11 04:23:17;;;;;;;7.03;3.30;;;;;;;11.70;100.00;99515.69;1826529;77;38159;-70
2021/05/11 04:25:53;;;;;;;4.67;3.00;;;;;;;11.83;100.00;99507.75;1826785;78;27825;-68
2021/05/11 04:28:41;;;;;;;4.65;2.33;;;;;;;11.99;100.00;99505.89;1817774;78;21076;-68
2021/05/11 04:31:23;;;;;;;7.03;2.90;;;;;;;12.18;100.00;99503.56;1837430;78;22786;-69
2021/05/11 04:34:06;;;;;;;6.22;2.80;;;;;;;12.24;100.00;99497.34;1842611;77;22758;-70
2021/05/11 04:36:42;;;;;;;3.45;2.70;;;;;;;12.28;100.00;99493.79;1821775;78;38618;-70
2021/05/11 04:39:19;;;;;;;8.80;2.50;;;;;;;12.40;100.00;99495.05;1821869;78;27749;-69
2021/05/11 04:42:08;;;;;;;4.15;2.45;;;;;;;12.55;100.00;99502.86;1809983;78;20875;-70
2021/05/11 04:44:44;;;;;;;3.72;2.30;;;;;;;12.80;100.00;99507.52;1826965;78;27951;-70
2021/05/11 04:47:46;;;;;;;4.72;2.50;;;;;;;12.98;100.00;99501.16;1842916;78;22705;-69
2021/05/11 04:50:08;;;;;;;4.03;2.22;;;;;;;13.12;100.00;99498.36;1837747;76;22397;-69
2021/05/11 04:52:45;;;;;;;5.60;2.10;;;;;;;13.21;100.00;99499.17;1837760;78;22715;-70
2021/05/11 04:55:21;;;;;;;3.67;2.50;;;;;;;13.28;100.00;99494.71;1822068;76;27796;-69
2021/05/11 04:57:57;;;;;;;3.50;2.30;;;;;;;13.37;100.00;99497.25;1826663;77;27882;-70
2021/05/11 05:00:33;;;;;;;3.10;2.20;;;;;;;13.51;100.00;99489.13;1821729;77;28298;-69
2021/05/11 05:03:13;;;;;;;3.07;2.20;;;;;;;13.69;99.58;99494.19;1821726;77;28276;-68
2021/05/11 05:05:59;;;;;;;6.65;2.33;;;;;;;13.80;98.19;99492.30;1809669;78;21057;-68
2021/05/11 05:08:56;;;;;;;3.22;2.15;;;;;;;13.95;96.47;99488.56;1874072;75;22762;-69
2021/05/11 05:11:39;;;;;;;4.83;2.42;;;;;;;13.99;95.09;99482.76;1837544;77;22342;-69
2021/05/11 05:14:14;;;;;;;2.75;2.00;;;;;;;14.02;92.49;99489.34;1842772;77;22641;-69
2021/05/11 05:16:50;;;;;;;3.90;2.10;;;;;;;14.05;89.26;99491.95;1826976;78;28292;-70
2021/05/11 05:19:27;;;;;;;3.70;2.12;;;;;;;14.14;87.29;99489.16;1804757;78;22086;-69
2021/05/11 05:22:23;;;;;;;2.87;2.10;;;;;;;14.31;84.03;99490.26;1874676;75;22498;-67
2021/05/11 05:25:08;;;;;;;3.57;2.47;;;;;;;14.39;81.59;99494.55;1821988;78;27782;-70
2021/05/11 05:27:48;;;;;;;3.62;2.20;;;;;;;14.52;79.70;99493.05;1837704;76;23293;-70
2021/05/11 05:30:24;;;;;;;5.00;2.40;;;;;;;14.67;79.08;99495.47;1876635;76;22258;-68
2021/05/11 05:33:02;;;;;;;6.47;2.10;;;;;;;14.75;78.63;99493.11;1817346;79;22730;-68
2021/05/11 05:35:42;;;;;;;4.35;2.20;;;;;;;14.80;77.52;99495.23;1778166;79;22767;-69
2021/05/11 05:38:30;;;;;;;5.92;2.40;;;;;;;14.83;77.85;99483.67;1750997;82;21018;-67
2021/05/11 05:41:12;;;;;;;5.35;2.45;;;;;;;15.01;78.89;99481.13;1790384;78;27836;-69
2021/05/11 05:43:52;;;;;;;4.70;2.60;;;;;;;15.12;77.58;99470.72;1843620;77;22345;-69
2021/05/11 05:46:31;;;;;;;3.60;2.20;;;;;;;15.26;78.35;99475.80;1838548;76;22712;-69
2021/05/11 05:49:09;;;;;;;4.60;2.70;;;;;;;15.38;79.22;99472.89;1790156;77;27786;-69
2021/05/11 05:52:00;;;;;;;3.17;2.08;;;;;;;15.50;79.18;99477.08;1780328;80;20910;-69
2021/05/11 05:54:36;;;;;;;5.37;2.42;;;;;;;15.73;79.12;99473.53;1778079;79;22780;-69
2021/05/11 05:57:12;;;;;;;4.10;2.50;;;;;;;15.87;78.23;99470.56;1822653;78;27739;-69
2021/05/11 06:00:01;;;;;;;9.30;2.27;;;;;;;16.02;78.69;99466.68;1810314;79;20990;-69
2021/05/11 06:02:43;;;;;;;3.60;2.17;;;;;;;16.30;77.25;99466.93;1843277;77;21940;-69
2021/05/11 06:05:16;;;;;;;2.05;1.75;;;;;;;16.47;76.74;99467.39;1843441;78;22205;-70
2021/05/11 06:08:05;;;;;;;5.15;2.35;;;;;;;16.60;75.42;99470.19;1818569;78;20958;-70
2021/05/11 06:10:43;;;;;;;2.92;2.00;;;;;;;16.85;73.58;99463.80;1777677;79;22248;-69
2021/05/11 06:13:30;;;;;;;4.70;1.82;;;;;;;17.01;69.51;99452.27;1843167;77;22435;-69
2021/05/11 06:19:04;;;;;;;2.72;1.80;;;;;;;17.34;63.54;99449.60;1843316;77;22314;-67
2021/05/11 06:22:00;;;;;;;5.15;1.75;;;;;;;17.51;62.19;99450.89;1872775;75;22316;-69
2021/05/11 06:24:54;;;;;;;1.82;1.67;;;;;;;17.69;59.59;99445.95;1838021;77;22201;-69
2021/05/11 06:27:39;;;;;;;3.95;1.32;;;;;;;17.86;57.89;99444.98;1843393;78;22093;-69
2021/05/11 06:30:17;;;;;;;2.27;1.80;;;;;;;17.99;55.12;99447.70;1822277;77;48417;-68
2021/05/11 06:33:07;;;;;;;3.37;1.80;;;;;;;18.10;53.83;99445.57;1810299;79;21010;-69
2021/05/11 06:35:44;;;;;;;3.02;1.50;;;;;;;18.30;51.01;99438.25;1837872;76;22210;-70
2021/05/11 06:38:19;;;;;;;3.37;1.67;;;;;;;18.41;50.04;99437.42;1827420;77;28366;-69
2021/05/11 06:41:08;;;;;;;3.22;1.60;;;;;;;18.50;49.17;99437.62;1818502;78;20997;-70
2021/05/11 06:43:45;;;;;;;1.80;1.40;;;;;;;18.69;46.35;99431.21;1838237;76;22737;-70
2021/05/11 06:55:08;;;;;;;3.33;1.17;;;;;;;19.21;43.32;99423.56;1838140;77;21793;-69
2021/05/11 06:57:44;;;;;;;2.83;1.30;;;;;;;19.32;42.66;99425.84;1838275;77;21767;-69
2021/05/11 07:00:32;;;;;;;2.83;1.32;;;;;;;19.37;43.19;99419.39;1810416;78;20918;-69
2021/05/11 07:03:08;;;;;;;2.57;1.70;;;;;;;19.54;41.00;99413.92;1822635;77;27830;-69
2021/05/11 07:05:53;;;;;;;2.00;1.30;;;;;;;19.67;39.69;99408.51;1817011;79;22194;-69
2021/05/11 07:08:39;;;;;;;2.55;1.20;;;;;;;19.77;40.15;99410.77;1847461;77;22758;-69
2021/05/11 07:13:57;;;;;;;1.35;1.17;;;;;;;19.95;39.24;99411.87;1838207;76;22391;-69
2021/05/11 07:16:34;;;;;;;3.20;1.30;;;;;;;20.01;37.05;99411.63;1822525;77;27720;-69
2021/05/11 07:19:16;;;;;;;3.22;1.40;;;;;;;20.07;36.13;99410.50;1837755;76;22764;-69
2021/05/11 07:21:52;;;;;;;3.70;1.20;;;;;;;20.13;35.86;99405.77;1838051;78;22447;-70
2021/05/11 07:24:28;;;;;;;2.37;1.30;;;;;;;20.17;35.57;99404.30;1822380;78;27726;-70
2021/05/11 07:32:41;;;;;;;2.02;1.17;;;;;;;20.59;35.24;99400.34;1837801;78;22453;-70
2021/05/11 07:35:23;;;;;;;1.98;1.10;;;;;;;20.66;34.83;99393.78;1837640;78;22692;-69
2021/05/11 07:38:04;;;;;;;8.98;1.45;;;;;;;20.71;34.86;99402.50;1816649;78;22351;-69
2021/05/11 07:40:41;;;;;;;1.45;1.20;;;;;;;20.75;34.15;99395.59;1777311;79;22225;-69
2021/05/11 07:43:25;;;;;;;1.85;1.02;;;;;;;20.83;34.12;99403.80;1842792;77;22481;-70
2021/05/11 07:49:17;;;;;;;2.65;1.00;;;;;;;20.92;33.49;99398.03;1837667;77;22727;-69
2021/05/11 07:52:13;;;;;;;2.60;1.15;;;;;;;20.97;33.50;99397.36;1837470;78;22090;-70
2021/05/11 08:15:24;;;;;;;8.85;1.32;;;;;;;21.51;31.78;99381.95;1842526;77;22418;-70
2021/05/11 08:18:08;;;;;;;2.62;1.20;;;;;;;21.59;31.41;99382.93;1842575;77;22254;-70
2021/05/11 08:34:38;;;;;;;6.33;1.20;;;;;;;22.62;30.85;99343.38;1786198;80;22841;-68
2021/05/11 08:37:16;;;;;;;3.45;1.30;;;;;;;22.82;30.62;99339.70;1826567;77;28351;-68
2021/05/11 08:40:04;;;;;;;2.33;0.90;;;;;;;22.90;30.71;99346.41;1817479;78;20915;-68
2021/05/11 08:42:40;;;;;;;2.37;0.80;;;;;;;23.11;30.61;99332.75;1837272;76;22665;-68
2021/05/11 08:45:17;;;;;;;2.08;1.20;;;;;;;23.13;30.23;99340.27;1821653;76;27724;-69
2021/05/11 08:47:53;;;;;;;2.47;1.10;;;;;;;23.24;30.29;99329.34;1826634;78;28377;-68
2021/05/11 08:53:47;;;;;;;1.20;0.98;;;;;;;23.61;30.30;99321.93;1837025;77;22681;-68
2021/05/11 09:07:56;;;;;;;1.92;1.30;;;;;;;23.46;30.03;99311.99;1842240;77;23245;-68
2021/05/11 09:28:48;;;;;;;2.20;1.00;;;;;;;24.00;30.06;99299.06;1876241;76;22641;-68
2021/05/11 09:31:40;;;;;;;3.52;1.12;;;;;;;24.08;30.26;99292.75;1837322;78;22447;-68
2021/05/11 09:34:33;;;;;;;3.77;1.20;;;;;;;24.12;30.04;99292.95;1809572;79;20978;-69
2021/05/11 09:58:23;;;;;;;2.52;1.10;;;;;;;24.81;31.93;99270.84;1776879;79;22824;-70
2021/05/11 10:37:01;;;;;;;2.42;1.00;;;;;;;26.08;32.58;99236.53;1837334;78;22174;-69
2021/05/11 10:39:40;;;;;;;4.42;1.00;;;;;;;26.17;32.33;99233.69;1789063;78;27731;-69
2021/05/11 10:48:35;;;;;;;2.33;0.80;;;;;;;26.44;32.52;99226.88;1809591;78;21563;-68
2021/05/11 10:51:25;;;;;;;3.47;0.80;;;;;;;26.54;31.82;99215.83;1837293;76;22221;-67
2021/05/11 10:56:44;;;;;;;3.10;0.90;;;;;;;26.74;33.17;99210.34;1837428;76;21765;-69
2021/05/11 11:02:37;;;;;;;3.52;1.10;;;;;;;26.83;32.70;99210.55;1817578;79;21162;-67
2021/05/11 11:05:04;;;;;;;15.05;1.40;;;;;;;27.02;32.22;99211.50;1876106;76;22696;-69
2021/05/11 11:07:42;;;;;;;3.85;1.10;;;;;;;27.10;32.38;99206.89;1842420;78;22255;-64
2021/05/11 11:10:18;;;;;;;6.20;1.10;;;;;;;27.17;32.34;99200.04;1841881;77;22227;-66
2021/05/11 11:13:05;;;;;;;10.40;0.98;;;;;;;27.21;32.04;99200.19;1817047;79;20986;-67
2021/05/11 11:15:48;;;;;;;8.20;0.90;;;;;;;27.27;32.27;99203.31;1836923;78;22295;-67
2021/05/11 11:18:25;;;;;;;7.30;1.30;;;;;;;27.29;32.18;99193.72;1821600;77;27790;-67
2021/05/11 11:23:56;;;;;;;6.53;1.17;;;;;;;27.42;31.20;99191.83;1837506;76;22665;-67
2021/05/11 11:29:16;;;;;;;2.25;1.05;;;;;;;27.52;31.20;99188.84;1826634;77;22351;-68
2021/05/11 11:31:52;;;;;;;2.83;0.95;;;;;;;27.52;30.88;99183.91;1821796;77;27679;-68
2021/05/11 11:34:40;;;;;;;2.47;0.95;;;;;;;27.53;31.63;99188.34;1809642;78;20986;-67
2021/05/11 11:37:16;;;;;;;6.70;0.93;;;;;;;27.61;32.09;99184.59;1821818;76;27868;-68
2021/05/11 11:39:53;;;;;;;4.57;0.90;;;;;;;27.67;32.18;99176.50;1789416;78;27751;-67
2021/05/11 11:42:41;;;;;;;4.12;0.70;;;;;;;27.70;31.37;99189.81;1779378;80;20978;-68
2021/05/11 11:45:26;;;;;;;3.25;0.70;;;;;;;27.73;30.90;99180.95;1837463;78;22811;-67
2021/05/11 11:48:04;;;;;;;1.92;0.90;;;;;;;27.72;31.09;99176.52;1842559;78;22624;-65
2021/05/11 11:50:42;;;;;;;3.27;1.10;;;;;;;27.71;31.49;99173.92;1776701;79;22762;-65
2021/05/11 11:53:21;;;;;;;3.70;1.00;;;;;;;27.69;31.19;99171.83;1821868;78;27723;-69
2021/05/11 11:56:23;;;;;;;1.82;1.27;;;;;;;27.65;30.96;99164.42;1842263;77;22300;-68
2021/05/11 11:58:38;;;;;;;4.80;1.77;;;;;;;27.55;31.20;99164.22;1776990;79;23366;-68
2021/05/11 12:01:26;;;;;;;6.20;1.30;;;;;;;27.48;31.51;99169.73;1749885;80;20930;-70
2021/05/11 12:04:03;;;;;;;4.00;1.00;;;;;;;27.55;32.03;99166.06;1826789;78;28334;-68
2021/05/11 12:06:48;;;;;;;1.62;0.93;;;;;;;27.64;31.61;99163.18;1842384;78;22298;-66
2021/05/11 12:09:46;;;;;;;4.75;0.93;;;;;;;27.69;31.01;99163.69;1846404;75;38016;-68
2021/05/11 12:12:45;;;;;;;5.35;1.12;;;;;;;27.73;31.31;99158.41;1875809;75;22842;-66
2021/05/11 12:15:41;;;;;;;2.52;1.15;;;;;;;27.77;30.96;99155.34;1874649;75;22631;-66
2021/05/11 12:19:06;;;;;;;5.33;1.00;;;;;;;27.75;31.22;99156.45;1862522;75;22277;-66
2021/05/11 12:22:01;;;;;;;3.60;0.98;;;;;;;27.69;31.01;99149.66;1842486;77;22743;-68
2021/05/11 12:24:41;;;;;;;6.60;1.07;;;;;;;27.68;30.54;99149.77;1821765;78;27816;-68
2021/05/11 12:27:24;;;;;;;4.60;0.98;;;;;;;27.74;30.42;99141.17;1842510;77;22744;-66
2021/05/11 12:30:08;;;;;;;3.00;0.80;;;;;;;27.80;30.63;99137.98;1837521;76;22276;-67
2021/05/11 12:33:09;;;;;;;2.70;0.90;;;;;;;27.75;30.74;99129.34;1809584;78;20922;-66
2021/05/11 12:35:52;;;;;;;1.70;0.78;;;;;;;27.75;30.67;99133.41;1842441;77;22677;-66
2021/05/11 12:38:49;;;;;;;3.65;1.00;;;;;;;27.72;30.82;99129.58;1875819;75;22934;-67
2021/05/11 12:41:48;;;;;;;5.28;0.95;;;;;;;27.77;31.41;99128.73;1825604;77;22751;-68
2021/05/11 12:44:36;;;;;;;3.27;1.02;;;;;;;27.76;30.88;99126.52;1813293;78;20994;-68
2021/05/11 12:47:15;;;;;;;1.72;0.95;;;;;;;27.86;31.55;99130.73;1842495;77;22763;-68
2021/05/11 12:50:17;;;;;;;3.25;0.90;;;;;;;27.86;31.70;99118.53;1842394;77;22475;-67
2021/05/11 12:57:05;;;;;;;4.65;1.10;;;;;;;27.78;31.59;99113.70;1809562;78;21002;-69
2021/05/11 12:59:52;;;;;;;28.23;1.50;;;;;;;27.90;31.24;99107.83;1789078;78;27745;-67
2021/05/11 13:03:09;;;;;;;2.58;0.95;;;;;;;27.99;31.15;99107.14;1842361;78;22374;-69
2021/05/11 13:26:41;;;;;;;2.75;0.85;;;;;;;27.97;31.89;99085.20;1837297;78;22798;-68
2021/05/11 13:31:56;;;;;;;2.90;1.00;;;;;;;27.96;31.33;99082.98;1876260;76;23207;-68
2021/05/11 13:34:30;;;;;;;1.62;0.80;;;;;;;27.87;31.11;99079.60;1842356;77;22421;-66
2021/05/11 13:37:06;;;;;;;2.52;0.93;;;;;;;27.76;31.39;99080.93;1837324;76;22408;-68
2021/05/11 13:39:42;;;;;;;4.55;1.20;;;;;;;27.72;31.22;99077.59;1837322;77;22184;-68
2021/05/11 13:42:18;;;;;;;4.15;1.27;;;;;;;27.67;31.16;99071.67;1837345;76;22561;-69
2021/05/11 13:44:54;;;;;;;6.20;1.17;;;;;;;27.60;31.30;99067.19;1821774;76;27777;-68
2021/05/11 13:47:33;;;;;;;4.35;1.02;;;;;;;27.56;31.10;99063.47;1837316;76;22977;-69
2021/05/11 13:50:12;;;;;;;5.17;1.07;;;;;;;27.53;31.44;99061.87;1842405;77;22177;-68
2021/05/11 13:52:48;;;;;;;2.30;1.10;;;;;;;27.44;31.93;99058.52;1837337;76;22749;-66
2021/05/11 13:55:34;;;;;;;13.65;2.00;;;;;;;27.40;32.73;99061.05;1821738;78;35941;-69
2021/05/11 14:04:03;;;;;;;6.08;1.45;;;;;;;27.51;32.51;99052.99;1837313;76;22105;-68
2021/05/11 14:06:44;;;;;;;3.45;1.20;;;;;;;27.48;32.23;99053.23;1837057;78;22831;-69
2021/05/11 14:09:32;;;;;;;4.30;1.20;;;;;;;27.43;32.39;99053.17;1809605;78;20931;-68
2021/05/11 14:12:08;;;;;;;4.63;1.40;;;;;;;27.48;32.01;99045.10;1821670;76;27731;-69
2021/05/11 14:14:50;;;;;;;2.75;1.10;;;;;;;27.53;31.90;99045.61;1837106;77;21821;-69
2021/05/11 14:17:26;;;;;;;3.10;1.10;;;;;;;27.55;32.21;99043.64;1821659;78;38648;-69
2021/05/11 14:20:03;;;;;;;2.80;1.00;;;;;;;27.56;32.28;99034.53;1837404;77;22224;-69
2021/05/11 14:22:39;;;;;;;3.35;0.80;;;;;;;27.55;31.92;99032.80;1842388;77;22088;-68
2021/05/11 14:25:15;;;;;;;3.67;1.00;;;;;;;27.51;32.22;99033.16;1826709;77;27705;-66
2021/05/11 14:27:52;;;;;;;4.07;1.20;;;;;;;27.54;32.48;99027.02;1789124;78;38622;-68
2021/05/11 14:30:34;;;;;;;4.45;1.25;;;;;;;27.70;32.26;99032.13;1837114;78;22367;-68
2021/05/11 14:33:21;;;;;;;1.50;0.90;;;;;;;27.73;32.22;99025.61;1809564;78;20966;-69
2021/05/11 14:35:57;;;;;;;2.10;1.00;;;;;;;27.76;31.82;99030.30;1821720;77;27714;-67
2021/05/11 14:38:34;;;;;;;3.95;1.50;;;;;;;27.81;31.99;99029.94;1876207;76;22215;-67
2021/05/11 14:41:10;;;;;;;3.50;1.10;;;;;;;27.83;32.04;99021.19;1837310;76;22256;-68
2021/05/11 14:43:59;;;;;;;5.33;1.30;;;;;;;27.67;31.78;99016.61;1809496;79;21005;-68
2021/05/11 14:46:41;;;;;;;3.10;1.12;;;;;;;27.54;32.22;99012.11;1837071;76;21881;-68
2021/05/11 14:49:18;;;;;;;3.90;1.20;;;;;;;27.48;32.23;99013.95;1826633;77;27758;-68
2021/05/11 14:52:11;;;;;;;2.65;1.32;;;;;;;27.36;31.89;99008.09;1817559;79;20910;-68
2021/05/11 14:54:49;;;;;;;5.50;1.17;;;;;;;27.26;31.55;98998.46;1837124;78;21879;-68
2021/05/11 14:57:25;;;;;;;4.93;0.90;;;;;;;27.13;31.63;99003.58;1821590;76;27733;-68
2021/05/11 15:00:01;;;;;;;5.67;1.00;;;;;;;27.08;31.96;99000.36;1821827;76;27808;-67
2021/05/11 15:02:37;;;;;;;4.47;1.00;;;;;;;27.08;32.17;98998.52;1821697;76;27682;-70
2021/05/11 15:05:15;;;;;;;3.33;1.02;;;;;;;27.10;32.07;98995.20;1821868;78;31713;-67
2021/05/11 15:08:05;;;;;;;1.98;0.90;;;;;;;27.08;31.96;99000.36;1809796;78;21468;-68
2021/05/11 15:13:23;;;;;;;4.62;1.25;;;;;;;26.85;32.12;98992.08;1837297;78;24272;-67
2021/05/11 15:18:57;;;;;;;4.28;1.20;;;;;;;26.61;32.38;98999.33;1827901;76;23260;-68
2021/05/11 15:21:34;;;;;;;3.95;1.47;;;;;;;26.34;32.58;98996.78;1821978;78;27866;-67
2021/05/11 15:24:21;;;;;;;3.75;1.45;;;;;;;26.34;32.58;98996.78;1809800;79;20923;-66
2021/05/11 15:27:04;;;;;;;3.08;1.00;;;;;;;26.41;33.27;98987.73;1837224;78;22650;-67
2021/05/11 15:29:40;;;;;;;9.50;1.50;;;;;;;26.36;33.38;98988.07;1804584;77;21516;-67
2021/05/11 15:32:53;;;;;;;7.05;1.20;;;;;;;26.29;33.40;98987.63;1837412;77;22414;-66
2021/05/11 15:35:32;;;;;;;5.80;1.20;;;;;;;26.26;33.94;98988.33;1842374;78;22677;-66
2021/05/11 15:38:31;;;;;;;4.58;1.15;;;;;;;26.24;34.19;98988.94;1869595;75;22737;-66
2021/05/11 15:41:25;;;;;;;17.85;2.27;;;;;;;26.18;33.59;98979.43;1787392;78;27808;-66
2021/05/11 15:44:12;;;;;;;6.65;0.90;;;;;;;26.10;33.60;98981.83;1778995;79;20981;-64
2021/05/11 15:46:49;;;;;;;5.08;1.20;;;;;;;26.11;33.70;98982.69;1821753;76;27889;-66
2021/05/11 15:49:31;;;;;;;6.75;1.40;;;;;;;26.11;33.43;98978.64;1826979;77;22729;-66
2021/05/11 15:52:07;;;;;;;3.77;1.30;;;;;;;26.06;33.75;98974.92;1827687;77;27788;-66
2021/05/11 15:54:54;;;;;;;3.77;1.25;;;;;;;26.06;33.89;98967.30;1785517;79;21531;-65
2021/05/11 15:57:30;;;;;;;3.08;1.20;;;;;;;26.03;34.02;98967.89;1821619;76;27729;-66
2021/05/11 16:00:08;;;;;;;4.95;1.30;;;;;;;26.01;34.12;98968.48;1821618;77;27818;-66
2021/05/11 16:02:44;;;;;;;5.12;1.50;;;;;;;26.04;34.19;98964.22;1837378;76;22674;-66
2021/05/11 16:05:20;;;;;;;8.45;1.85;;;;;;;26.02;33.88;98961.25;1842366;77;23243;-66
2021/05/11 16:07:56;;;;;;;6.03;1.32;;;;;;;25.92;34.02;98956.09;1804509;78;21467;-65
2021/05/11 16:10:45;;;;;;;3.22;1.60;;;;;;;25.77;34.15;98959.90;1768651;80;20986;-67
2021/05/11 16:13:22;;;;;;;5.17;1.50;;;;;;;25.70;34.62;98952.23;1831418;77;22544;-70
2021/05/11 16:16:18;;;;;;;5.55;1.65;;;;;;;25.60;34.94;98963.28;1826865;75;28018;-71
